Time;durP1;ratioP1;P1;durP2;ratioP2;P2;SDS_P1;SDS_P2;PMS_P1;PMS_P2;Temp;Humidity;BMP_temperature;BMP_pressure;BME280_temperature;BME280_humidity;BME280_pressure;Samples;Min_cycle;Max_cycle;Signal;HPM_P1;HPM_P2
2023/03/06 00:00:48;;;;;;;27.55;15.73;;;29.20;80.60;;;;;;4986962;28;20123;-58
2023/03/06 00:03:16;;;;;;;22.83;14.02;;;29.20;80.60;;;;;;4984976;28;20058;-57
2023/03/06 00:06:13;;;;;;;30.98;16.52;;;29.20;80.50;;;;;;4987210;28;20061;-59
2023/03/06 00:08:40;;;;;;;25.58;14.57;;;29.20;80.60;;;;;;4987177;28;20042;-56
2023/03/06 00:11:07;;;;;;;25.67;14.30;;;29.10;80.40;;;;;;4987083;28;20034;-57
2023/03/06 00:13:33;;;;;;;25.95;14.23;;;29.20;80.70;;;;;;4969821;28;20026;-58
2023/03/06 00:16:00;;;;;;;26.95;13.60;;;29.10;80.40;;;;;;4986687;28;20343;-57
2023/03/06 00:18:27;;;;;;;24.67;13.20;;;29.10;80.40;;;;;;4986665;28;20035;-55
2023/03/06 00:20:53;;;;;;;22.08;12.60;;;29.10;80.70;;;;;;4986801;28;20049;-57
2023/03/06 00:23:20;;;;;;;23.33;13.18;;;29.10;80.20;;;;;;4986724;28;20039;-56
2023/03/06 00:25:47;;;;;;;21.58;12.90;;;29.00;80.20;;;;;;4986706;28;20145;-60
2023/03/06 00:28:14;;;;;;;22.17;12.85;;;29.00;80.10;;;;;;4986759;28;20030;-56
2023/03/06 00:30:41;;;;;;;22.20;12.95;;;29.00;79.80;;;;;;4986371;28;20207;-55
2023/03/06 00:33:11;;;;;;;25.35;13.38;;;29.00;79.50;;;;;;4986607;28;20288;-57
2023/03/06 00:35:41;;;;;;;23.42;12.63;;;29.00;79.50;;;;;;4986391;28;20031;-58
2023/03/06 00:38:10;;;;;;;26.25;13.18;;;29.00;79.60;;;;;;4986383;28;20054;-58
2023/03/06 00:40:39;;;;;;;26.42;13.23;;;29.00;79.50;;;;;;4986006;28;20043;-57
2023/03/06 00:43:05;;;;;;;21.27;13.25;;;29.00;79.60;;;;;;4986410;28;20046;-58
2023/03/06 00:45:34;;;;;;;27.45;12.88;;;29.00;79.50;;;;;;4986209;28;20030;-56
2023/03/06 00:48:01;;;;;;;28.85;13.13;;;28.90;79.50;;;;;;4969440;28;20081;-58
2023/03/06 00:50:28;;;;;;;28.38;14.65;;;28.90;79.60;;;;;;4985024;28;20034;-55
2023/03/06 00:52:54;;;;;;;26.55;15.13;;;28.90;79.60;;;;;;4984883;28;20085;-58
2023/03/06 00:55:21;;;;;;;31.63;13.73;;;28.90;79.60;;;;;;4986158;28;20065;-59
2023/03/06 00:57:48;;;;;;;29.65;14.15;;;28.90;79.70;;;;;;4985013;28;20057;-55
2023/03/06 01:00:15;;;;;;;26.60;14.35;;;28.90;79.60;;;;;;4985792;28;20038;-57
2023/03/06 01:02:41;;;;;;;24.27;14.52;;;28.90;79.60;;;;;;4985980;28;20030;-56
2023/03/06 01:05:12;;;;;;;29.15;14.80;;;28.90;79.60;;;;;;4986370;28;20069;-55
2023/03/06 01:07:38;;;;;;;26.65;14.65;;;28.80;79.60;;;;;;4985890;28;20046;-59
2023/03/06 01:10:06;;;;;;;24.15;13.40;;;28.80;79.50;;;;;;4985972;28;20097;-59
2023/03/06 01:12:33;;;;;;;28.25;13.15;;;28.80;79.50;;;;;;4985926;28;20085;-58
2023/03/06 01:15:00;;;;;;;29.33;14.35;;;28.80;79.40;;;;;;4985629;28;20097;-60
2023/03/06 01:17:27;;;;;;;23.77;13.50;;;28.80;79.20;;;;;;4985722;28;20081;-57
2023/03/06 01:19:53;;;;;;;25.25;13.88;;;28.80;79.20;;;;;;4985527;28;20090;-58
2023/03/06 01:22:20;;;;;;;26.58;13.80;;;28.70;79.10;;;;;;4985499;28;20023;-57
2023/03/06 01:24:50;;;;;;;32.25;14.48;;;28.70;79.20;;;;;;4985568;28;20034;-60
2023/03/06 01:27:17;;;;;;;31.45;14.23;;;28.70;79.10;;;;;;4985346;28;20057;-57
2023/03/06 01:29:43;;;;;;;23.35;13.45;;;28.70;79.10;;;;;;4985692;28;20116;-59
2023/03/06 01:32:10;;;;;;;23.17;13.07;;;28.70;79.10;;;;;;4985676;28;20042;-58
2023/03/06 01:34:37;;;;;;;25.70;13.18;;;28.70;79.10;;;;;;4985581;28;20026;-57
2023/03/06 01:37:03;;;;;;;26.08;14.10;;;28.70;79.10;;;;;;4985268;28;20077;-56
2023/03/06 01:39:30;;;;;;;25.85;13.93;;;28.70;79.10;;;;;;4985247;28;20343;-58
2023/03/06 01:41:57;;;;;;;26.65;14.20;;;28.70;79.00;;;;;;4985406;28;20093;-57
2023/03/06 01:44:24;;;;;;;25.77;13.25;;;28.70;79.00;;;;;;4985762;28;20026;-57
2023/03/06 01:46:50;;;;;;;26.35;13.95;;;28.70;79.10;;;;;;4985315;28;20341;-61
2023/03/06 01:49:23;;;;;;;24.05;12.88;;;28.70;78.90;;;;;;4985588;28;20065;-59
2023/03/06 01:51:55;;;;;;;24.02;13.07;;;28.70;79.10;;;;;;4984931;28;20046;-61
2023/03/06 01:57:29;;;;;;;24.52;13.52;;;28.60;78.80;;;;;;4985252;28;20026;-59
2023/03/06 02:00:06;;;;;;;21.50;12.63;;;28.60;78.60;;;;;;4984939;28;20039;-61
2023/03/06 02:02:32;;;;;;;26.58;12.80;;;28.60;78.60;;;;;;4985090;28;20019;-59
2023/03/06 02:05:01;;;;;;;23.02;12.68;;;28.60;78.60;;;;;;4985455;28;20027;-55
2023/03/06 02:07:28;;;;;;;22.02;12.52;;;28.60;78.60;;;;;;4985059;28;20093;-58
2023/03/06 02:09:58;;;;;;;20.60;12.48;;;28.60;78.50;;;;;;4985082;28;20077;-55
2023/03/06 02:12:25;;;;;;;20.27;12.25;;;28.60;78.40;;;;;;4984850;28;20307;-58
2023/03/06 02:14:52;;;;;;;19.98;11.75;;;28.60;78.40;;;;;;4984715;28;20038;-56
2023/03/06 02:17:22;;;;;;;18.30;11.85;;;28.60;78.40;;;;;;4984898;28;20080;-57
2023/03/06 02:20:02;;;;;;;20.85;11.88;;;28.50;78.30;;;;;;4983772;28;20322;-56
2023/03/06 02:22:57;;;;;;;23.88;12.40;;;28.50;78.20;;;;;;4984776;28;20067;-58
2023/03/06 02:25:41;;;;;;;25.73;12.57;;;28.50;78.10;;;;;;5005319;28;20043;-58
2023/03/06 02:28:11;;;;;;;20.67;11.25;;;28.50;78.10;;;;;;4987966;28;20176;-56
2023/03/06 02:30:39;;;;;;;18.45;11.90;;;28.50;78.60;;;;;;4988622;28;20031;-56
2023/03/06 02:33:06;;;;;;;19.30;11.18;;;28.50;78.00;;;;;;4988839;28;20041;-55
2023/03/06 02:35:35;;;;;;;17.42;11.88;;;28.50;78.00;;;;;;4988773;28;20026;-57
2023/03/06 02:38:14;;;;;;;20.13;11.52;;;28.50;78.00;;;;;;4988555;28;20039;-59
2023/03/06 02:40:43;;;;;;;20.63;11.52;;;28.50;78.00;;;;;;4988319;28;20042;-56
2023/03/06 02:43:11;;;;;;;16.30;11.40;;;28.50;78.10;;;;;;4988791;28;20045;-56
2023/03/06 02:45:45;;;;;;;24.30;11.82;;;28.50;78.00;;;;;;4987389;28;20033;-55
2023/03/06 02:48:14;;;;;;;20.83;11.35;;;28.40;78.10;;;;;;4988481;28;20026;-55
2023/03/06 02:50:41;;;;;;;17.55;11.23;;;28.40;78.00;;;;;;4988326;28;20038;-57
2023/03/06 02:53:09;;;;;;;20.48;11.38;;;28.40;78.10;;;;;;4988821;28;20098;-57
2023/03/06 02:55:36;;;;;;;20.55;10.90;;;28.40;78.20;;;;;;4988580;28;20034;-56
2023/03/06 02:58:03;;;;;;;19.80;11.40;;;28.40;78.20;;;;;;4981270;28;20098;-58
2023/03/06 03:00:32;;;;;;;22.40;11.75;;;28.40;78.20;;;;;;4974185;28;20330;-54
2023/03/06 03:02:58;;;;;;;18.95;10.55;;;28.30;78.50;;;;;;4982490;28;20066;-61
2023/03/06 03:05:25;;;;;;;26.92;11.23;;;28.00;79.30;;;;;;4988269;28;20070;-54
2023/03/06 03:07:52;;;;;;;19.10;11.07;;;28.00;79.50;;;;;;4988251;28;20207;-59
2023/03/06 03:10:18;;;;;;;16.77;10.68;;;28.10;79.30;;;;;;4988138;28;20037;-59
2023/03/06 03:12:45;;;;;;;16.52;11.07;;;28.10;79.20;;;;;;4976886;28;20078;-58
2023/03/06 03:15:12;;;;;;;23.98;11.30;;;28.20;79.10;;;;;;4981127;28;20035;-57
2023/03/06 03:17:40;;;;;;;18.90;10.85;;;28.20;79.00;;;;;;4988080;28;20041;-53
2023/03/06 03:20:11;;;;;;;26.58;12.27;;;28.20;79.00;;;;;;4987876;28;20034;-55
2023/03/06 03:22:38;;;;;;;23.17;11.98;;;28.30;79.30;;;;;;4988106;28;20227;-56
2023/03/06 03:25:05;;;;;;;20.45;11.68;;;28.30;79.50;;;;;;4987531;28;20091;-54
2023/03/06 03:27:32;;;;;;;19.05;11.52;;;28.20;78.80;;;;;;4984744;28;20065;-60
2023/03/06 03:29:59;;;;;;;19.75;11.20;;;28.30;78.90;;;;;;4988127;28;20349;-58
2023/03/06 03:32:26;;;;;;;20.50;10.93;;;28.20;78.50;;;;;;4986839;28;20027;-55
2023/03/06 03:34:55;;;;;;;18.63;11.63;;;28.30;78.60;;;;;;4968105;28;20035;-56
2023/03/06 03:37:21;;;;;;;21.02;12.45;;;28.20;78.40;;;;;;4967222;28;20027;-56
2023/03/06 03:39:48;;;;;;;23.55;11.68;;;28.20;78.50;;;;;;4968003;28;20061;-55
2023/03/06 03:42:15;;;;;;;19.27;11.55;;;28.20;78.40;;;;;;4976607;28;20262;-55
2023/03/06 03:44:41;;;;;;;21.00;11.35;;;28.20;78.50;;;;;;4987361;28;20027;-54
2023/03/06 03:47:08;;;;;;;20.48;10.90;;;28.20;78.60;;;;;;4987377;28;20034;-57
2023/03/06 03:49:35;;;;;;;20.30;11.57;;;28.20;78.70;;;;;;4987644;28;20031;-55
2023/03/06 03:52:01;;;;;;;15.30;10.55;;;28.20;78.60;;;;;;4987507;28;20098;-55
2023/03/06 03:54:28;;;;;;;21.60;11.48;;;28.20;78.70;;;;;;4987649;28;20030;-57
2023/03/06 03:56:54;;;;;;;18.52;11.02;;;28.20;78.90;;;;;;4987122;28;20360;-56
2023/03/06 03:59:21;;;;;;;20.33;11.40;;;28.10;79.00;;;;;;4987496;28;20094;-55
2023/03/06 04:01:48;;;;;;;15.73;11.18;;;28.10;79.00;;;;;;4986983;28;20035;-55
2023/03/06 04:04:15;;;;;;;20.20;11.90;;;28.10;79.20;;;;;;4987320;28;20054;-53
2023/03/06 04:06:41;;;;;;;18.58;11.80;;;28.10;79.30;;;;;;4986997;28;20035;-56
2023/03/06 04:09:27;;;;;;;23.08;11.57;;;28.10;79.40;;;;;;4987943;28;20018;-52
2023/03/06 04:11:54;;;;;;;19.13;11.50;;;28.00;79.40;;;;;;4988701;28;20035;-57
2023/03/06 04:14:21;;;;;;;17.40;11.20;;;28.10;79.40;;;;;;4987257;28;20090;-57
2023/03/06 04:16:47;;;;;;;21.67;11.23;;;28.00;79.40;;;;;;4986859;28;20090;-57
2023/03/06 04:19:15;;;;;;;20.23;10.90;;;28.00;79.40;;;;;;4987142;28;20050;-56
2023/03/06 04:21:42;;;;;;;15.40;10.55;;;28.00;79.60;;;;;;4986707;28;20062;-62
2023/03/06 04:24:08;;;;;;;17.85;11.10;;;28.00;79.70;;;;;;4987055;28;20069;-56
2023/03/06 04:26:35;;;;;;;19.67;10.75;;;28.00;79.80;;;;;;4986481;28;20026;-59
2023/03/06 04:29:02;;;;;;;16.52;11.23;;;28.00;79.70;;;;;;4986303;28;20299;-55
2023/03/06 04:31:28;;;;;;;20.10;11.35;;;28.00;79.70;;;;;;4986511;28;20042;-57
2023/03/06 04:33:55;;;;;;;18.88;11.77;;;28.00;79.60;;;;;;4986764;28;20061;-55
2023/03/06 04:36:31;;;;;;;20.50;12.73;;;27.90;79.50;;;;;;4986655;28;20085;-56
2023/03/06 04:38:58;;;;;;;21.95;15.98;;;27.90;79.30;;;;;;4986410;28;20110;-55
2023/03/06 04:41:25;;;;;;;26.45;21.17;;;27.90;79.30;;;;;;4986288;28;20047;-56
2023/03/06 04:43:52;;;;;;;25.63;21.83;;;27.90;79.30;;;;;;4986750;28;20223;-60
2023/03/06 04:46:18;;;;;;;27.98;20.35;;;27.90;79.10;;;;;;4986214;28;20026;-54
2023/03/06 04:48:45;;;;;;;20.10;16.60;;;27.90;78.90;;;;;;4986276;28;20106;-58
2023/03/06 04:51:13;;;;;;;20.08;14.93;;;27.90;78.70;;;;;;4986372;28;20377;-58
2023/03/06 04:53:39;;;;;;;19.38;14.18;;;27.90;78.80;;;;;;4986590;28;20317;-57
2023/03/06 04:56:06;;;;;;;21.17;12.90;;;27.90;78.90;;;;;;4986012;28;20031;-56
2023/03/06 04:58:33;;;;;;;18.20;12.57;;;27.90;79.00;;;;;;4986304;28;20302;-58
2023/03/06 05:00:59;;;;;;;18.70;12.15;;;27.80;79.10;;;;;;4985929;28;20037;-56
2023/03/06 05:03:26;;;;;;;18.85;11.45;;;27.80;79.30;;;;;;4986028;28;20049;-57
2023/03/06 05:05:53;;;;;;;20.15;11.80;;;27.80;79.40;;;;;;4986176;28;20207;-56
2023/03/06 05:08:19;;;;;;;18.73;11.18;;;27.80;79.60;;;;;;4986148;28;20018;-56
2023/03/06 05:10:52;;;;;;;15.63;11.48;;;27.80;79.80;;;;;;4985658;28;20038;-57
2023/03/06 05:13:19;;;;;;;18.85;11.27;;;27.80;80.00;;;;;;4985939;28;20022;-57
2023/03/06 05:15:45;;;;;;;16.17;11.77;;;27.80;80.20;;;;;;4985831;28;20098;-56
2023/03/06 05:18:12;;;;;;;20.58;10.55;;;27.70;80.30;;;;;;4985570;28;20041;-62
2023/03/06 05:20:38;;;;;;;19.73;11.30;;;27.70;80.40;;;;;;4985641;28;20038;-59
2023/03/06 05:23:05;;;;;;;14.10;10.23;;;27.70;80.30;;;;;;4985772;28;20031;-58
2023/03/06 05:25:31;;;;;;;15.00;10.60;;;27.70;80.30;;;;;;4985450;28;20270;-58
2023/03/06 05:27:58;;;;;;;17.75;10.20;;;27.70;80.50;;;;;;4985868;28;20015;-62
2023/03/06 05:30:25;;;;;;;20.05;10.32;;;27.60;80.40;;;;;;4985512;28;20066;-58
2023/03/06 05:32:52;;;;;;;16.35;9.40;;;27.60;80.20;;;;;;4985482;28;20050;-57
2023/03/06 05:35:20;;;;;;;14.77;9.90;;;27.60;80.10;;;;;;4985414;28;20041;-61
2023/03/06 05:37:48;;;;;;;16.35;9.70;;;27.60;80.20;;;;;;4985431;28;20306;-58
2023/03/06 05:40:15;;;;;;;16.75;10.25;;;27.60;80.20;;;;;;4985000;28;20050;-57
2023/03/06 05:42:42;;;;;;;15.77;9.82;;;27.60;80.10;;;;;;4985295;28;20022;-57
2023/03/06 05:45:10;;;;;;;13.00;9.05;;;27.60;80.00;;;;;;4985325;28;20029;-56
2023/03/06 05:47:37;;;;;;;16.30;9.32;;;27.60;79.80;;;;;;4985099;28;20031;-59
2023/03/06 05:50:06;;;;;;;17.08;9.88;;;27.60;79.70;;;;;;4985175;28;20027;-57
2023/03/06 05:52:33;;;;;;;15.00;9.35;;;27.60;79.80;;;;;;4985162;28;20026;-56
2023/03/06 05:55:00;;;;;;;14.30;8.82;;;27.60;79.80;;;;;;4984965;28;20227;-56
2023/03/06 05:57:26;;;;;;;12.20;8.93;;;27.60;79.60;;;;;;4985195;28;20247;-64
2023/03/06 05:59:53;;;;;;;11.73;9.35;;;27.60;79.30;;;;;;4984459;28;20046;-55
2023/03/06 06:02:19;;;;;;;14.43;8.70;;;27.60;79.40;;;;;;4984750;28;20082;-60
2023/03/06 06:04:46;;;;;;;14.18;9.23;;;27.60;79.30;;;;;;4984979;28;20090;-57
2023/03/06 06:07:14;;;;;;;14.57;9.65;;;27.60;79.40;;;;;;4985043;28;20022;-60
2023/03/06 06:09:44;;;;;;;14.02;9.10;;;27.60;79.40;;;;;;4984838;28;20054;-59
2023/03/06 06:12:11;;;;;;;12.52;8.70;;;27.60;79.40;;;;;;4984927;28;20019;-59
2023/03/06 06:14:38;;;;;;;14.82;9.10;;;27.60;79.20;;;;;;4985373;28;20195;-57
2023/03/06 06:17:04;;;;;;;12.82;8.50;;;27.60;79.00;;;;;;4984831;28;20031;-57
2023/03/06 06:19:31;;;;;;;12.40;8.65;;;27.60;78.80;;;;;;4985362;28;20018;-57
2023/03/06 06:21:58;;;;;;;11.20;8.27;;;27.60;78.70;;;;;;4984909;28;20047;-57
2023/03/06 06:24:26;;;;;;;13.35;8.52;;;27.60;78.70;;;;;;4985193;28;20094;-56
2023/03/06 06:26:55;;;;;;;13.10;8.57;;;27.60;78.50;;;;;;4984860;28;20027;-63
2023/03/06 06:29:23;;;;;;;13.02;8.90;;;27.60;78.30;;;;;;4985244;28;20034;-56
2023/03/06 06:31:50;;;;;;;15.98;9.05;;;27.60;78.30;;;;;;4984608;28;20054;-59
2023/03/06 06:34:16;;;;;;;12.75;8.05;;;27.60;78.30;;;;;;4985206;28;20089;-56
2023/03/06 06:36:43;;;;;;;14.90;8.60;;;27.60;78.10;;;;;;4984848;28;20039;-55
2023/03/06 06:39:13;;;;;;;16.33;9.10;;;27.60;77.90;;;;;;4984676;28;20282;-56
2023/03/06 06:41:40;;;;;;;16.60;8.77;;;27.60;77.80;;;;;;4984612;28;20042;-56
2023/03/06 06:44:11;;;;;;;12.32;8.43;;;27.60;77.70;;;;;;4985178;28;20027;-57
2023/03/06 06:46:37;;;;;;;13.73;8.60;;;27.60;77.60;;;;;;4984659;28;20034;-57
2023/03/06 06:49:04;;;;;;;14.38;9.18;;;27.60;77.40;;;;;;4984561;28;20034;-58
2023/03/06 06:51:32;;;;;;;12.77;8.25;;;27.70;77.40;;;;;;4984626;28;20054;-64
2023/03/06 06:54:00;;;;;;;14.50;8.40;;;27.70;77.50;;;;;;4984916;28;20302;-58
2023/03/06 06:56:26;;;;;;;11.68;8.18;;;27.70;77.10;;;;;;4984555;28;20088;-57
2023/03/06 06:58:55;;;;;;;11.98;7.88;;;27.70;76.80;;;;;;4985009;28;20058;-57
2023/03/06 07:01:22;;;;;;;13.98;8.32;;;27.70;76.80;;;;;;4984309;28;20331;-53
2023/03/06 07:03:48;;;;;;;12.10;8.35;;;27.70;76.60;;;;;;4984814;28;20357;-56
2023/03/06 07:06:15;;;;;;;14.18;8.18;;;27.70;76.50;;;;;;4984429;28;20266;-59
2023/03/06 07:08:41;;;;;;;10.80;8.10;;;27.70;76.40;;;;;;4983313;28;20097;-59
2023/03/06 07:11:12;;;;;;;12.43;8.00;;;27.70;76.40;;;;;;4985885;28;20030;-58
2023/03/06 07:13:39;;;;;;;13.65;8.57;;;27.70;76.50;;;;;;4988485;28;20039;-59
2023/03/06 07:16:06;;;;;;;12.23;8.43;;;27.70;76.30;;;;;;4987903;28;20393;-56
2023/03/06 07:18:32;;;;;;;11.95;8.02;;;27.80;76.30;;;;;;4988305;28;20303;-56
2023/03/06 07:20:59;;;;;;;13.48;8.02;;;27.80;76.30;;;;;;4987769;28;20026;-59
2023/03/06 07:23:26;;;;;;;11.82;8.13;;;27.80;76.00;;;;;;4987995;28;20026;-56
2023/03/06 07:25:54;;;;;;;11.75;7.78;;;27.80;75.80;;;;;;4987758;28;20038;-58
2023/03/06 07:28:20;;;;;;;11.27;7.70;;;27.80;75.80;;;;;;4987958;28;20027;-58
2023/03/06 07:30:47;;;;;;;14.98;8.13;;;27.80;75.90;;;;;;4987720;28;20058;-57
2023/03/06 07:33:14;;;;;;;11.32;7.82;;;27.80;75.90;;;;;;4987755;28;20030;-57
2023/03/06 07:35:42;;;;;;;10.02;8.05;;;27.80;75.80;;;;;;4987618;28;20117;-62
2023/03/06 07:38:08;;;;;;;11.15;7.55;;;27.80;75.70;;;;;;4987600;28;20038;-59
2023/03/06 07:40:35;;;;;;;13.70;7.32;;;27.80;75.70;;;;;;4987217;28;20100;-57
2023/03/06 07:43:01;;;;;;;10.38;7.65;;;27.80;75.70;;;;;;4987758;28;20027;-57
2023/03/06 07:45:28;;;;;;;12.40;7.60;;;27.80;75.50;;;;;;4987312;28;20054;-57
2023/03/06 07:47:55;;;;;;;11.50;7.53;;;27.80;75.50;;;;;;4987392;28;20022;-57
2023/03/06 07:50:21;;;;;;;12.85;7.70;;;27.80;75.40;;;;;;4987288;28;20082;-58
2023/03/06 07:52:52;;;;;;;14.35;7.50;;;27.80;75.50;;;;;;4987306;28;20065;-57
2023/03/06 07:55:19;;;;;;;13.07;8.60;;;27.80;75.60;;;;;;4987243;28;20038;-58
2023/03/06 07:57:45;;;;;;;12.32;7.78;;;27.70;75.60;;;;;;4987302;28;20015;-58
2023/03/06 08:00:14;;;;;;;11.57;7.93;;;27.70;75.70;;;;;;4987279;28;20314;-57
2023/03/06 08:02:42;;;;;;;10.23;8.07;;;27.70;75.70;;;;;;4987150;28;20326;-58
2023/03/06 08:05:11;;;;;;;11.35;8.13;;;27.70;75.80;;;;;;4987207;28;20030;-60
2023/03/06 08:07:38;;;;;;;12.20;7.97;;;27.70;75.80;;;;;;4986963;28;20070;-56
2023/03/06 08:10:05;;;;;;;14.30;8.05;;;27.70;75.90;;;;;;4986984;28;20030;-60
2023/03/06 08:12:32;;;;;;;13.30;8.73;;;27.70;76.00;;;;;;4987047;28;20050;-58
2023/03/06 08:14:58;;;;;;;14.43;8.50;;;27.70;76.30;;;;;;4986842;28;20085;-55
2023/03/06 08:17:25;;;;;;;14.50;8.75;;;27.70;76.60;;;;;;4986875;28;20018;-55
2023/03/06 08:19:51;;;;;;;12.73;8.55;;;27.70;77.00;;;;;;4986784;28;20042;-56
2023/03/06 08:22:18;;;;;;;11.95;8.65;;;27.70;77.80;;;;;;4985968;28;20090;-57
2023/03/06 08:24:44;;;;;;;13.23;8.93;;;27.60;77.50;;;;;;4986701;28;20058;-57
2023/03/06 08:27:11;;;;;;;12.90;8.68;;;27.60;77.50;;;;;;4986700;28;20264;-60
2023/03/06 08:29:37;;;;;;;14.07;8.90;;;27.60;77.60;;;;;;4986549;28;20026;-56
2023/03/06 08:32:04;;;;;;;17.92;9.45;;;27.60;77.70;;;;;;4986585;28;20038;-57
2023/03/06 08:34:31;;;;;;;13.95;9.13;;;27.60;77.90;;;;;;4986421;28;20021;-57
2023/03/06 08:36:57;;;;;;;15.45;9.10;;;27.60;78.00;;;;;;4986387;28;20058;-60
2023/03/06 08:39:24;;;;;;;15.20;9.45;;;27.50;77.90;;;;;;4986494;28;20039;-57
2023/03/06 08:41:50;;;;;;;14.65;8.55;;;27.50;78.00;;;;;;4986335;28;20089;-58
2023/03/06 08:44:17;;;;;;;13.88;8.93;;;27.50;78.10;;;;;;4986556;28;20357;-56
2023/03/06 08:46:43;;;;;;;13.70;9.10;;;27.50;78.30;;;;;;4986317;28;20057;-56
2023/03/06 08:49:12;;;;;;;14.10;9.00;;;27.50;78.30;;;;;;4986608;28;20049;-54
2023/03/06 08:51:38;;;;;;;13.82;9.10;;;27.50;78.20;;;;;;4986056;28;20183;-57
2023/03/06 08:54:06;;;;;;;12.98;9.50;;;27.50;78.00;;;;;;4986602;28;20058;-57
2023/03/06 08:56:33;;;;;;;19.67;9.73;;;27.50;78.10;;;;;;4986071;28;20035;-56
2023/03/06 08:59:03;;;;;;;13.73;8.85;;;27.40;78.00;;;;;;4986296;28;20089;-57
2023/03/06 09:01:33;;;;;;;13.75;8.88;;;27.50;78.00;;;;;;4985962;28;20098;-57
2023/03/06 09:04:02;;;;;;;14.75;9.50;;;27.40;77.90;;;;;;4986279;28;20029;-58
2023/03/06 09:06:32;;;;;;;12.82;9.38;;;27.40;77.90;;;;;;4985757;28;20027;-58
2023/03/06 09:08:59;;;;;;;13.30;9.02;;;27.40;77.90;;;;;;4986236;28;20027;-57
2023/03/06 09:11:26;;;;;;;15.27;9.55;;;27.40;77.80;;;;;;4985874;28;20042;-57
2023/03/06 09:13:54;;;;;;;13.02;9.38;;;27.50;77.90;;;;;;4986003;28;20025;-57
2023/03/06 09:16:20;;;;;;;15.15;9.18;;;27.40;77.80;;;;;;4985790;28;20353;-57
2023/03/06 09:18:49;;;;;;;15.20;9.15;;;27.40;77.60;;;;;;4985592;28;20041;-56
2023/03/06 09:21:16;;;;;;;12.35;9.10;;;27.40;77.50;;;;;;4985401;28;20050;-56
2023/03/06 09:23:42;;;;;;;16.58;8.63;;;27.40;77.40;;;;;;4986107;28;20073;-57
2023/03/06 09:26:10;;;;;;;13.68;8.32;;;27.50;77.40;;;;;;4985608;28;20023;-55
2023/03/06 09:28:38;;;;;;;11.88;8.43;;;27.40;77.30;;;;;;4985692;28;20031;-57
2023/03/06 09:31:16;;;;;;;17.02;9.02;;;27.40;77.40;;;;;;4985463;28;20316;-63
2023/03/06 09:33:43;;;;;;;15.13;9.23;;;27.40;77.50;;;;;;4985289;28;20033;-57
2023/03/06 09:36:16;;;;;;;14.15;9.75;;;27.40;77.40;;;;;;4985114;28;20041;-55
2023/03/06 09:38:42;;;;;;;16.35;9.73;;;27.40;77.50;;;;;;4985369;28;20022;-58
2023/03/06 09:41:34;;;;;;;14.85;9.88;;;27.40;77.60;;;;;;4985085;28;20039;-58
2023/03/06 09:44:19;;;;;;;13.95;9.60;;;27.40;77.60;;;;;;4985707;28;20031;-57
2023/03/06 09:46:55;;;;;;;13.25;8.75;;;27.40;77.60;;;;;;4985207;28;20031;-60
2023/03/06 09:49:52;;;;;;;12.82;9.57;;;27.40;77.70;;;;;;4985752;28;20049;-59
2023/03/06 09:52:54;;;;;;;12.57;9.00;;;27.40;77.60;;;;;;4985331;28;20274;-63
2023/03/06 09:55:28;;;;;;;16.27;10.50;;;27.40;77.50;;;;;;4965243;28;20039;-62
2023/03/06 09:58:09;;;;;;;13.88;8.98;;;27.30;77.60;;;;;;4965803;28;20061;-61
2023/03/06 10:00:45;;;;;;;17.23;9.23;;;27.40;77.70;;;;;;4965672;28;20039;-63
2023/03/06 10:03:12;;;;;;;13.88;9.15;;;27.30;77.80;;;;;;4965739;28;20243;-65
2023/03/06 10:05:51;;;;;;;14.68;9.40;;;27.30;77.70;;;;;;4965698;28;20038;-62
2023/03/06 10:08:20;;;;;;;13.90;9.85;;;27.40;77.80;;;;;;4965885;29;20050;-56
2023/03/06 10:10:50;;;;;;;14.25;9.52;;;27.40;77.80;;;;;;4965584;28;20035;-58
2023/03/06 10:13:40;;;;;;;18.35;10.27;;;27.40;77.60;;;;;;4965821;28;20107;-57
2023/03/06 10:16:27;;;;;;;16.27;10.48;;;27.40;77.50;;;;;;4965563;28;20035;-58
2023/03/06 10:19:03;;;;;;;12.00;9.15;;;27.40;77.50;;;;;;4965704;28;20038;-59
2023/03/06 10:21:46;;;;;;;17.75;9.50;;;27.40;77.50;;;;;;4965467;28;20078;-60
2023/03/06 10:24:39;;;;;;;12.10;9.20;;;27.40;77.30;;;;;;4965766;28;20031;-58
2023/03/06 10:27:42;;;;;;;13.82;9.65;;;27.40;77.30;;;;;;4991405;28;20395;-55
2023/03/06 10:30:32;;;;;;;20.92;10.48;;;27.40;77.50;;;;;;4965404;28;20042;-57
2023/03/06 10:33:33;;;;;;;15.05;10.82;;;27.40;77.60;;;;;;4965533;28;20023;-59
2023/03/06 10:36:00;;;;;;;16.13;9.70;;;27.40;77.80;;;;;;4981526;28;20062;-57
2023/03/06 10:38:37;;;;;;;17.73;10.43;;;27.40;77.90;;;;;;4975435;28;20038;-57
2023/03/06 10:41:12;;;;;;;16.73;10.05;;;27.40;78.20;;;;;;4984517;28;20102;-59
2023/03/06 10:43:40;;;;;;;15.57;10.05;;;27.40;78.60;;;;;;4982770;28;20027;-57
2023/03/06 10:46:09;;;;;;;16.98;10.15;;;27.40;78.90;;;;;;4984345;28;20046;-57
2023/03/06 10:48:38;;;;;;;18.73;9.98;;;27.40;78.90;;;;;;4988658;28;20063;-56
2023/03/06 10:51:21;;;;;;;14.60;8.98;;;27.40;79.20;;;;;;4988331;28;20077;-56
2023/03/06 10:54:13;;;;;;;12.77;9.38;;;27.30;79.20;;;;;;4988599;28;20034;-55
2023/03/06 10:56:41;;;;;;;;;;;27.40;79.40;;;;;;4990307;28;20054;-58
2023/03/06 10:59:18;;;;;;;20.23;9.93;;;27.40;79.50;;;;;;4988606;28;19906;-56
2023/03/06 11:01:47;;;;;;;12.38;9.40;;;27.40;79.80;;;;;;4976510;28;20050;-55
2023/03/06 11:04:23;;;;;;;18.40;9.88;;;27.40;80.10;;;;;;4968611;28;20019;-55
2023/03/06 11:07:05;;;;;;;16.27;9.65;;;27.30;80.00;;;;;;4981924;28;20066;-60
2023/03/06 11:09:36;;;;;;;23.17;9.95;;;27.30;80.00;;;;;;4988935;28;20030;-55
2023/03/06 11:12:22;;;;;;;21.48;9.68;;;27.30;80.00;;;;;;4988844;28;20042;-55
2023/03/06 11:15:11;;;;;;;17.40;9.85;;;27.30;80.40;;;;;;4988456;28;20027;-63
2023/03/06 11:18:03;;;;;;;16.92;9.80;;;27.30;80.70;;;;;;4990000;28;20039;-56
2023/03/06 11:20:46;;;;;;;22.42;10.25;;;27.30;80.70;;;;;;4987575;28;20061;-57
2023/03/06 11:23:33;;;;;;;17.92;9.68;;;27.30;80.80;;;;;;4986665;28;20051;-58
2023/03/06 11:26:12;;;;;;;20.65;10.93;;;27.30;80.90;;;;;;4968651;28;20026;-62
2023/03/06 11:28:58;;;;;;;22.30;10.57;;;27.30;82.00;;;;;;4968247;28;20371;-57
2023/03/06 11:32:13;;;;;;;24.38;10.45;;;27.30;82.20;;;;;;4968972;29;20347;-58
2023/03/06 11:35:12;;;;;;;26.55;11.15;;;27.30;82.40;;;;;;4970684;28;20046;-61
2023/03/06 11:38:23;;;;;;;23.88;11.77;;;27.30;83.00;;;;;;4970314;28;20235;-56
2023/03/06 11:40:53;;;;;;;25.55;12.45;;;27.30;82.90;;;;;;4985550;28;20051;-58
2023/03/06 11:43:41;;;;;;;26.00;11.98;;;27.30;83.00;;;;;;4986731;28;20035;-54
2023/03/06 11:46:25;;;;;;;20.17;12.25;;;27.20;83.80;;;;;;4988090;28;20033;-57
2023/03/06 11:49:10;;;;;;;20.83;11.70;;;27.20;84.00;;;;;;4987713;28;20019;-57
2023/03/06 11:51:42;;;;;;;23.67;11.52;;;27.20;84.00;;;;;;4987216;28;20043;-58
2023/03/06 11:54:12;;;;;;;16.83;11.55;;;27.10;84.00;;;;;;4987313;28;20070;-56
2023/03/06 11:57:16;;;;;;;20.13;12.88;;;27.20;84.20;;;;;;4986387;28;20347;-56
2023/03/06 12:00:10;;;;;;;20.58;11.85;;;27.20;84.60;;;;;;5004090;28;20027;-55
2023/03/06 12:02:58;;;;;;;21.40;11.40;;;27.10;84.60;;;;;;4987295;28;20102;-58
2023/03/06 12:05:36;;;;;;;17.88;11.38;;;27.10;85.10;;;;;;4987440;28;20027;-58
2023/03/06 12:08:26;;;;;;;20.65;11.45;;;27.20;84.50;;;;;;4987405;28;20030;-61
2023/03/06 12:11:44;;;;;;;18.23;10.98;;;27.10;84.40;;;;;;4987619;28;20042;-57
2023/03/06 12:14:19;;;;;;;19.42;10.32;;;27.10;84.30;;;;;;4996516;28;20254;-54
2023/03/06 12:16:57;;;;;;;18.95;10.55;;;27.10;84.20;;;;;;4986846;28;20026;-57
2023/03/06 12:19:51;;;;;;;17.80;10.52;;;27.20;84.20;;;;;;4986163;28;20034;-56
2023/03/06 12:22:40;;;;;;;18.23;10.27;;;27.10;84.10;;;;;;4986698;28;20022;-61
2023/03/06 12:25:34;;;;;;;15.40;9.95;;;27.20;84.10;;;;;;4986901;28;20034;-55
2023/03/06 12:28:25;;;;;;;16.05;10.15;;;27.20;84.10;;;;;;4986688;28;20045;-55
2023/03/06 12:31:23;;;;;;;17.52;9.93;;;27.20;84.00;;;;;;4986991;28;20046;-57
2023/03/06 12:33:57;;;;;;;18.00;10.73;;;27.20;83.80;;;;;;4986650;28;20022;-56
2023/03/06 12:36:56;;;;;;;17.40;10.90;;;27.20;83.90;;;;;;4986898;28;20101;-58
2023/03/06 12:39:23;;;;;;;15.60;10.35;;;27.20;84.00;;;;;;4986366;28;20084;-57
2023/03/06 12:42:07;;;;;;;16.73;9.80;;;27.20;84.10;;;;;;4986410;28;20045;-55
2023/03/06 12:44:57;;;;;;;45.28;13.38;;;27.20;84.10;;;;;;4986434;28;20299;-58
2023/03/06 12:47:29;;;;;;;43.58;12.80;;;27.20;83.90;;;;;;4986382;28;20349;-57
2023/03/06 12:50:12;;;;;;;34.83;11.48;;;27.20;83.70;;;;;;4986373;28;20041;-55
2023/03/06 12:52:40;;;;;;;28.00;11.15;;;27.30;83.60;;;;;;4987188;28;20208;-57
2023/03/06 12:55:12;;;;;;;62.83;14.50;;;27.30;83.40;;;;;;4987167;28;20386;-54